Time;durP1;ratioP1;P1;durP2;ratioP2;P2;SDS_P1;SDS_P2;PMS_P1;PMS_P2;Temp;Humidity;BMP_temperature;BMP_pressure;BME280_temperature;BME280_humidity;BME280_pressure;Samples;Min_cycle;Max_cycle;Signal;HPM_P1;HPM_P2
2022/02/26 00:00:14;;;;;;;18.80;2.75;;;;;;;3.45;100.00;101822.94;5226876;28;20032;-79
2022/02/26 00:02:44;;;;;;;21.02;2.58;;;;;;;3.54;100.00;101810.16;5208151;28;20059;-79
2022/02/26 00:05:15;;;;;;;17.92;2.30;;;;;;;3.40;100.00;101822.00;5226026;28;20048;-79
2022/02/26 00:07:45;;;;;;;19.60;2.70;;;;;;;3.47;100.00;101829.88;5225736;28;20500;-80
2022/02/26 00:10:15;;;;;;;23.95;2.72;;;;;;;3.46;100.00;101832.41;5208545;28;20028;-80
2022/02/26 00:12:46;;;;;;;15.10;2.35;;;;;;;3.42;100.00;101830.66;5225902;28;20124;-80
2022/02/26 00:15:16;;;;;;;18.95;2.80;;;;;;;3.40;100.00;101834.94;5225705;28;20037;-80
2022/02/26 00:17:47;;;;;;;18.90;3.60;;;;;;;3.34;100.00;101840.88;5226118;28;20025;-80
2022/02/26 00:20:17;;;;;;;19.00;2.63;;;;;;;3.33;100.00;101833.13;5226334;28;20029;-78
2022/02/26 00:22:47;;;;;;;22.65;2.63;;;;;;;3.37;100.00;101834.91;5226522;28;20107;-80
2022/02/26 00:25:18;;;;;;;19.95;2.50;;;;;;;3.49;100.00;101842.78;5227111;28;20130;-79
2022/02/26 00:27:48;;;;;;;19.23;2.50;;;;;;;3.53;100.00;101837.69;5226167;28;20013;-80
2022/02/26 00:30:18;;;;;;;16.02;2.15;;;;;;;3.58;100.00;101842.06;5226858;28;20116;-80
2022/02/26 00:32:49;;;;;;;15.80;2.20;;;;;;;3.59;100.00;101840.38;5207562;28;20029;-80
2022/02/26 00:35:19;;;;;;;19.27;2.53;;;;;;;3.66;100.00;101852.50;5227121;28;20078;-80
2022/02/26 00:37:49;;;;;;;21.15;2.28;;;;;;;3.65;100.00;101841.28;5226566;28;20029;-81
2022/02/26 00:40:20;;;;;;;13.90;2.20;;;;;;;3.65;100.00;101836.13;5226674;28;20029;-79
2022/02/26 00:42:50;;;;;;;15.80;2.38;;;;;;;3.65;100.00;101837.84;5224486;28;20031;-79
2022/02/26 00:45:21;;;;;;;20.75;3.08;;;;;;;3.72;100.00;101835.38;5224148;28;20032;-79
2022/02/26 00:47:51;;;;;;;16.80;2.28;;;;;;;3.67;100.00;101828.41;5206830;28;20032;-79
2022/02/26 00:50:21;;;;;;;20.95;2.65;;;;;;;3.71;100.00;101841.38;5225138;28;20033;-79
2022/02/26 00:52:52;;;;;;;17.25;2.30;;;;;;;3.79;100.00;101844.06;5224200;28;20398;-79
2022/02/26 00:55:22;;;;;;;16.13;1.90;;;;;;;3.77;100.00;101838.84;5224844;28;20036;-80
2022/02/26 00:57:52;;;;;;;19.48;2.30;;;;;;;3.74;100.00;101836.25;5223705;28;20437;-79
2022/02/26 01:00:23;;;;;;;24.00;2.70;;;;;;;3.74;100.00;101846.59;5224579;28;20033;-79
2022/02/26 01:02:53;;;;;;;25.02;3.03;;;;;;;3.77;100.00;101848.34;5224028;28;20025;-80
2022/02/26 01:05:23;;;;;;;24.45;2.55;;;;;;;3.76;100.00;101842.31;5224605;28;20117;-80
2022/02/26 01:07:53;;;;;;;17.65;2.30;;;;;;;3.69;100.00;101843.09;5224288;28;20020;-80
2022/02/26 01:10:24;;;;;;;18.42;2.47;;;;;;;3.68;100.00;101851.69;5224800;28;20025;-80
2022/02/26 01:12:54;;;;;;;15.85;2.30;;;;;;;3.68;100.00;101846.53;5226165;28;20025;-80
2022/02/26 01:15:24;;;;;;;19.73;2.22;;;;;;;3.69;100.00;101861.19;5223986;28;20043;-80
2022/02/26 01:17:55;;;;;;;24.95;3.05;;;;;;;3.67;100.00;101862.88;5214583;28;20033;-79
2022/02/26 01:20:25;;;;;;;19.13;2.65;;;;;;;3.70;100.00;101862.03;5217088;28;20025;-79
2022/02/26 01:22:56;;;;;;;19.83;2.60;;;;;;;3.73;100.00;101870.69;5223749;28;20039;-81
2022/02/26 01:25:26;;;;;;;19.55;2.25;;;;;;;3.76;100.00;101872.47;5206351;28;20040;-80
2022/02/26 01:27:56;;;;;;;21.25;2.75;;;;;;;3.76;100.00;101881.06;5223508;28;20024;-79
2022/02/26 01:30:28;;;;;;;19.40;2.78;;;;;;;3.80;100.00;101884.56;5223706;28;20036;-79
2022/02/26 01:32:58;;;;;;;21.13;2.78;;;;;;;3.83;100.00;101882.91;5223749;28;20078;-79
2022/02/26 01:35:28;;;;;;;19.45;2.30;;;;;;;3.80;100.00;101882.84;5223910;28;20562;-79
2022/02/26 01:37:59;;;;;;;18.85;3.03;;;;;;;3.82;100.00;101891.47;5223304;28;20028;-79
2022/02/26 01:40:29;;;;;;;16.83;2.42;;;;;;;3.81;100.00;101891.47;5222396;28;20040;-79
2022/02/26 01:42:59;;;;;;;33.10;3.28;;;;;;;3.83;100.00;101889.78;5221665;28;20112;-79
2022/02/26 01:45:30;;;;;;;21.52;3.08;;;;;;;3.87;100.00;101899.31;5221895;28;20029;-79
2022/02/26 01:48:00;;;;;;;18.92;2.33;;;;;;;3.83;100.00;101898.41;5221158;28;20025;-79
2022/02/26 01:50:30;;;;;;;17.88;2.50;;;;;;;3.85;100.00;101894.13;5221846;28;20075;-79
2022/02/26 01:53:01;;;;;;;23.55;2.60;;;;;;;3.85;100.00;101899.31;5219863;28;20021;-80
2022/02/26 01:55:32;;;;;;;20.63;2.60;;;;;;;3.86;100.00;101901.03;5223090;28;20040;-79
2022/02/26 01:58:04;;;;;;;22.45;3.30;;;;;;;3.83;100.00;101908.75;5222281;28;20024;-80
2022/02/26 02:00:34;;;;;;;23.38;2.38;;;;;;;3.87;100.00;101907.06;5222605;28;20033;-80
2022/02/26 02:03:04;;;;;;;16.83;2.72;;;;;;;3.85;100.00;101909.66;5222038;28;20025;-80
2022/02/26 02:05:35;;;;;;;17.98;2.28;;;;;;;3.87;100.00;101913.13;5222587;28;20033;-79
2022/02/26 02:08:05;;;;;;;15.32;1.77;;;;;;;3.87;100.00;101915.69;5204408;28;20060;-81
2022/02/26 02:10:37;;;;;;;25.15;2.78;;;;;;;3.91;100.00;101917.47;5222260;28;20418;-79
2022/02/26 02:13:08;;;;;;;19.88;2.70;;;;;;;3.89;100.00;101918.28;5203609;28;20112;-80
2022/02/26 02:15:41;;;;;;;16.20;2.40;;;;;;;3.91;100.00;101924.34;5222476;28;20112;-79
2022/02/26 02:18:14;;;;;;;21.00;2.75;;;;;;;3.89;100.00;101918.28;5204011;28;20025;-80
2022/02/26 02:20:45;;;;;;;20.42;2.97;;;;;;;3.92;100.00;101918.34;5222360;28;20090;-80
2022/02/26 02:23:16;;;;;;;18.02;2.70;;;;;;;3.89;100.00;101924.34;5221500;28;20025;-79
2022/02/26 02:25:46;;;;;;;16.60;2.65;;;;;;;4.01;100.00;101926.22;5203889;28;20021;-79
2022/02/26 02:28:16;;;;;;;13.00;2.03;;;;;;;3.95;100.00;101924.41;5204058;28;20024;-80
2022/02/26 02:30:47;;;;;;;24.15;2.50;;;;;;;3.96;100.00;101931.31;5221939;28;20415;-79
2022/02/26 02:33:17;;;;;;;15.38;2.58;;;;;;;3.98;100.00;101939.97;5221521;28;20082;-79
2022/02/26 02:35:48;;;;;;;24.00;2.95;;;;;;;3.96;100.00;101936.50;5221692;28;20461;-79
2022/02/26 02:38:18;;;;;;;21.38;2.90;;;;;;;4.00;100.00;101935.72;5221731;28;20420;-79
2022/02/26 02:40:49;;;;;;;20.58;2.53;;;;;;;3.99;100.00;101939.09;5221375;28;20051;-80
2022/02/26 02:43:20;;;;;;;28.98;2.92;;;;;;;4.06;100.00;101953.00;5222045;28;20025;-79
2022/02/26 02:45:50;;;;;;;22.10;2.72;;;;;;;3.96;100.00;101945.97;5221070;28;20398;-79
2022/02/26 02:48:21;;;;;;;24.58;2.47;;;;;;;3.96;100.00;101946.84;5221859;28;20212;-79
2022/02/26 02:50:52;;;;;;;20.85;2.75;;;;;;;3.93;100.00;101951.97;5220770;28;20039;-80
2022/02/26 02:53:22;;;;;;;19.67;3.08;;;;;;;4.08;100.00;101952.16;5219995;28;20430;-79
2022/02/26 02:55:53;;;;;;;14.27;2.40;;;;;;;4.06;100.00;101961.63;5220624;28;20049;-78
2022/02/26 02:58:27;;;;;;;18.75;2.60;;;;;;;4.14;100.00;101959.16;5203150;28;20021;-79
2022/02/26 03:00:58;;;;;;;21.80;2.60;;;;;;;4.13;100.00;101975.50;5217209;28;20036;-80
2022/02/26 03:03:28;;;;;;;23.20;2.85;;;;;;;4.06;100.00;101971.97;5202657;28;20490;-79
2022/02/26 03:05:59;;;;;;;29.42;3.25;;;;;;;4.14;100.00;101964.31;5220715;28;20310;-79
2022/02/26 03:08:29;;;;;;;19.73;2.58;;;;;;;4.08;100.00;101971.97;5220347;28;20087;-79
2022/02/26 03:10:59;;;;;;;14.90;3.17;;;;;;;4.15;100.00;101984.16;5220104;28;20482;-79
2022/02/26 03:13:30;;;;;;;19.50;3.15;;;;;;;4.11;100.00;101995.31;5220471;28;20035;-79
2022/02/26 03:16:00;;;;;;;19.42;2.63;;;;;;;4.22;100.00;101989.44;5220299;28;20471;-79
2022/02/26 03:18:30;;;;;;;19.55;2.70;;;;;;;4.09;100.00;101990.13;5219950;28;20036;-79
2022/02/26 03:21:01;;;;;;;24.10;2.80;;;;;;;4.18;100.00;102000.59;5219388;28;20429;-79
2022/02/26 03:23:31;;;;;;;20.67;2.58;;;;;;;4.29;100.00;102003.31;5219784;28;20028;-79
2022/02/26 03:26:01;;;;;;;21.85;2.53;;;;;;;4.29;100.00;102001.59;5219572;28;20033;-79
2022/02/26 03:28:32;;;;;;;18.02;2.13;;;;;;;4.37;100.00;102017.22;5220140;28;20033;-79
2022/02/26 03:31:02;;;;;;;17.02;2.60;;;;;;;4.31;100.00;102028.34;5220617;28;20036;-79
2022/02/26 03:33:32;;;;;;;21.02;2.53;;;;;;;4.34;100.00;102019.75;5220496;28;20087;-79
2022/02/26 03:36:03;;;;;;;22.70;2.72;;;;;;;4.29;100.00;102018.84;5220163;28;20589;-79
2022/02/26 03:38:33;;;;;;;17.15;2.47;;;;;;;4.31;100.00;102025.75;5220196;28;20033;-79
2022/02/26 03:41:04;;;;;;;22.73;2.70;;;;;;;4.34;100.00;102033.59;5219990;28;20612;-79
2022/02/26 03:43:34;;;;;;;16.80;2.45;;;;;;;4.39;100.00;102036.22;5220354;28;20033;-79
2022/02/26 03:46:04;;;;;;;24.50;2.90;;;;;;;4.38;100.00;102035.34;5220406;28;20052;-81
2022/02/26 03:48:34;;;;;;;18.45;2.45;;;;;;;4.41;100.00;102048.34;5219814;28;20557;-81
2022/02/26 03:51:05;;;;;;;24.45;3.15;;;;;;;4.42;100.00;102046.59;5220606;28;20091;-81
2022/02/26 03:53:36;;;;;;;19.10;3.03;;;;;;;4.33;100.00;102057.69;5222808;28;20146;-81
2022/02/26 03:56:06;;;;;;;17.33;2.65;;;;;;;4.41;100.00;102047.44;5221357;28;20037;-81
2022/02/26 03:58:37;;;;;;;20.27;2.83;;;;;;;4.40;100.00;102059.53;5203171;28;20098;-81
2022/02/26 04:01:07;;;;;;;27.13;3.70;;;;;;;4.45;100.00;102065.63;5220972;28;20394;-80
2022/02/26 04:03:37;;;;;;;23.00;2.75;;;;;;;4.44;100.00;102058.72;5221683;28;20025;-80
2022/02/26 04:06:08;;;;;;;22.73;2.70;;;;;;;4.45;100.00;102078.56;5221347;28;20029;-81
2022/02/26 04:08:38;;;;;;;15.32;3.25;;;;;;;4.45;100.00;102062.19;5221393;28;20025;-81
2022/02/26 04:11:08;;;;;;;21.02;2.50;;;;;;;4.39;100.00;102075.03;5221486;28;20644;-80
2022/02/26 04:13:39;;;;;;;16.42;2.30;;;;;;;4.47;100.00;102076.88;5221100;28;20024;-81
2022/02/26 04:16:09;;;;;;;20.88;2.40;;;;;;;4.47;100.00;102071.69;5221162;28;20355;-81
2022/02/26 04:18:39;;;;;;;17.30;2.38;;;;;;;4.51;100.00;102073.50;5221124;28;20079;-80
2022/02/26 04:21:10;;;;;;;23.58;2.67;;;;;;;4.57;100.00;102080.44;5221180;28;20024;-80
2022/02/26 04:23:41;;;;;;;29.02;3.10;;;;;;;4.53;100.00;102081.25;5220592;28;20071;-81
2022/02/26 04:26:11;;;;;;;26.10;2.95;;;;;;;4.53;100.00;102092.50;5221241;28;20024;-81
2022/02/26 04:28:41;;;;;;;24.33;2.70;;;;;;;4.45;100.00;102094.09;5221204;28;20428;-81
2022/02/26 04:31:12;;;;;;;20.38;2.80;;;;;;;4.46;100.00;102095.84;5221546;28;20053;-81
2022/02/26 04:33:43;;;;;;;22.60;2.65;;;;;;;4.43;100.00;102093.22;5206133;28;20056;-80
2022/02/26 04:36:13;;;;;;;21.80;2.53;;;;;;;4.43;100.00;102100.13;5223917;28;20143;-81
2022/02/26 04:38:44;;;;;;;18.73;2.60;;;;;;;4.51;100.00;102099.38;5225032;28;20451;-81
2022/02/26 04:41:14;;;;;;;20.00;2.53;;;;;;;4.53;100.00;102105.44;5207354;28;20021;-80
2022/02/26 04:43:45;;;;;;;15.23;2.63;;;;;;;4.52;100.00;102116.66;5223611;28;20064;-80
2022/02/26 04:46:15;;;;;;;25.67;2.75;;;;;;;4.57;100.00;102117.56;5224418;28;20155;-81
2022/02/26 04:48:45;;;;;;;18.00;2.35;;;;;;;4.52;100.00;102120.94;5225504;28;20056;-81
2022/02/26 04:51:16;;;;;;;26.40;2.85;;;;;;;4.49;100.00;102126.94;5207490;28;20059;-81
2022/02/26 04:53:46;;;;;;;18.13;2.72;;;;;;;4.47;100.00;102125.19;5224996;28;20067;-81
2022/02/26 04:56:16;;;;;;;19.38;2.67;;;;;;;4.55;100.00;102126.16;5225390;28;20657;-81
2022/02/26 04:58:47;;;;;;;20.20;2.85;;;;;;;4.56;100.00;102133.94;5225199;28;20029;-81
2022/02/26 05:01:17;;;;;;;26.50;2.97;;;;;;;4.64;100.00;102134.91;5225361;28;20104;-81
2022/02/26 05:03:47;;;;;;;15.68;2.40;;;;;;;4.53;100.00;102123.56;5207027;28;20382;-81
2022/02/26 05:06:18;;;;;;;17.58;2.53;;;;;;;4.67;100.00;102142.72;5224815;28;20033;-81
2022/02/26 05:08:48;;;;;;;15.75;2.67;;;;;;;4.68;100.00;102154.84;5224344;28;20024;-81
2022/02/26 05:11:18;;;;;;;22.00;3.45;;;;;;;4.61;100.00;102142.63;5225056;28;20017;-81
2022/02/26 05:13:48;;;;;;;26.52;3.13;;;;;;;4.62;100.00;102154.72;5224547;28;20043;-80
2022/02/26 05:16:19;;;;;;;23.58;3.20;;;;;;;4.58;100.00;102147.78;5223712;28;20120;-80
2022/02/26 05:18:49;;;;;;;21.67;2.55;;;;;;;4.70;100.00;102149.66;5224828;28;20503;-80
2022/02/26 05:21:19;;;;;;;21.67;3.15;;;;;;;4.52;100.00;102155.47;5225689;28;20393;-82
2022/02/26 05:23:49;;;;;;;22.45;2.58;;;;;;;4.52;100.00;102159.78;5226417;28;20098;-81
2022/02/26 05:26:20;;;;;;;25.67;3.10;;;;;;;4.55;100.00;102147.75;5207539;28;20472;-81
2022/02/26 05:28:50;;;;;;;24.73;2.80;;;;;;;4.51;100.00;102156.31;5225143;28;20025;-81
2022/02/26 05:31:20;;;;;;;32.42;3.75;;;;;;;4.48;100.00;102155.41;5224205;28;20033;-81
2022/02/26 05:33:51;;;;;;;19.20;2.45;;;;;;;4.51;100.00;102161.50;5224001;28;20033;-81
2022/02/26 05:36:21;;;;;;;24.50;2.80;;;;;;;4.47;100.00;102164.88;5224178;28;20033;-81
2022/02/26 05:38:51;;;;;;;24.05;3.08;;;;;;;4.45;100.00;102166.56;5206479;28;20597;-80
2022/02/26 05:41:23;;;;;;;18.50;2.55;;;;;;;4.55;100.00;102164.97;5225036;28;20032;-81
2022/02/26 05:43:53;;;;;;;15.48;2.00;;;;;;;4.52;100.00;102170.13;5204934;28;20078;-81
2022/02/26 05:46:23;;;;;;;23.40;2.80;;;;;;;4.46;100.00;102183.84;5223712;28;20380;-81
2022/02/26 05:48:54;;;;;;;15.90;2.78;;;;;;;4.41;100.00;102194.97;5206859;28;20053;-80
2022/02/26 05:51:24;;;;;;;23.52;2.90;;;;;;;4.47;100.00;102206.28;5222904;28;20059;-81
2022/02/26 05:53:55;;;;;;;17.30;2.72;;;;;;;4.46;100.00;102207.13;5222128;28;20076;-80
2022/02/26 05:56:25;;;;;;;25.60;3.45;;;;;;;4.42;100.00;102217.41;5218484;28;20036;-81
2022/02/26 05:58:55;;;;;;;20.48;3.65;;;;;;;4.48;100.00;102220.97;5222145;28;20427;-81
2022/02/26 06:01:26;;;;;;;26.00;3.13;;;;;;;4.47;100.00;102216.63;5222260;28;20033;-80
2022/02/26 06:03:57;;;;;;;18.52;2.50;;;;;;;4.46;100.00;102224.41;5222101;28;20474;-80
2022/02/26 06:06:27;;;;;;;22.63;2.70;;;;;;;4.42;100.00;102236.41;5221602;28;20033;-80
2022/02/26 06:08:57;;;;;;;21.00;3.00;;;;;;;4.44;100.00;102241.63;5222415;28;20035;-81
2022/02/26 06:11:28;;;;;;;20.17;2.88;;;;;;;4.49;100.00;102243.41;5222109;28;20078;-81
2022/02/26 06:13:59;;;;;;;20.35;2.58;;;;;;;4.45;100.00;102238.19;5221520;28;20069;-80
2022/02/26 06:16:29;;;;;;;21.08;3.35;;;;;;;4.49;100.00;102246.00;5221592;28;20079;-80
2022/02/26 06:18:59;;;;;;;29.67;3.75;;;;;;;4.41;100.00;102249.31;5221430;28;20098;-81
2022/02/26 06:21:30;;;;;;;20.38;2.72;;;;;;;4.40;100.00;102255.34;5221871;28;20029;-80
2022/02/26 06:24:00;;;;;;;19.77;3.45;;;;;;;4.37;100.00;102252.72;5221494;28;20313;-80
2022/02/26 06:26:32;;;;;;;19.85;2.88;;;;;;;4.44;100.00;102263.19;5221688;28;20051;-80
2022/02/26 06:29:03;;;;;;;28.90;2.88;;;;;;;4.39;100.00;102264.84;5203743;28;20486;-80
2022/02/26 06:31:33;;;;;;;26.83;2.88;;;;;;;4.39;100.00;102263.97;5220896;28;20033;-80
2022/02/26 06:34:03;;;;;;;22.38;3.40;;;;;;;4.39;100.00;102264.84;5221500;28;20483;-80
2022/02/26 06:36:36;;;;;;;20.80;3.65;;;;;;;4.41;100.00;102273.50;5221164;28;20020;-81
2022/02/26 06:39:06;;;;;;;25.25;3.08;;;;;;;4.41;100.00;102263.16;5222149;28;20033;-81
2022/02/26 06:41:37;;;;;;;22.95;2.70;;;;;;;4.36;100.00;102266.50;5203057;28;20174;-81
2022/02/26 06:44:07;;;;;;;17.75;3.28;;;;;;;4.32;100.00;102262.97;5220721;28;20025;-80
2022/02/26 06:46:38;;;;;;;17.42;3.00;;;;;;;4.28;100.00;102266.38;5215742;28;20391;-80
2022/02/26 06:49:08;;;;;;;27.08;3.10;;;;;;;4.28;100.00;102265.50;5221019;28;20025;-80
2022/02/26 06:51:38;;;;;;;20.42;3.63;;;;;;;4.38;100.00;102272.56;5222005;28;20040;-81
2022/02/26 06:54:09;;;;;;;15.50;2.42;;;;;;;4.43;100.00;102279.56;5223196;28;20447;-80
2022/02/26 06:56:39;;;;;;;19.10;2.90;;;;;;;4.42;100.00;102279.53;5204114;28;20033;-80
2022/02/26 06:59:10;;;;;;;26.98;3.75;;;;;;;4.42;100.00;102295.94;5203657;28;20048;-80
2022/02/26 07:01:40;;;;;;;21.38;2.88;;;;;;;4.36;100.00;102306.22;5204055;28;20032;-80
2022/02/26 07:04:12;;;;;;;25.08;3.05;;;;;;;4.46;100.00;102296.88;5221633;28;20013;-81
2022/02/26 07:06:44;;;;;;;23.13;2.85;;;;;;;4.47;100.00;102307.25;5221348;28;20025;-81
2022/02/26 07:09:17;;;;;;;20.45;3.03;;;;;;;4.54;100.00;102316.88;5222210;28;20036;-81
2022/02/26 07:11:48;;;;;;;27.45;3.72;;;;;;;4.60;100.00;102326.47;5203620;28;20060;-81
2022/02/26 07:14:18;;;;;;;20.45;3.30;;;;;;;4.46;100.00;102325.34;5222262;28;20032;-81
2022/02/26 07:16:48;;;;;;;22.50;2.70;;;;;;;4.58;100.00;102323.84;5221577;28;20151;-81
2022/02/26 07:19:19;;;;;;;22.38;3.25;;;;;;;4.57;100.00;102326.38;5221378;28;20174;-81
2022/02/26 07:21:49;;;;;;;25.85;3.33;;;;;;;4.63;100.00;102335.13;5204314;28;20502;-80
2022/02/26 07:24:19;;;;;;;20.17;3.03;;;;;;;4.64;100.00;102342.03;5222693;28;20140;-81
2022/02/26 07:26:49;;;;;;;19.00;3.00;;;;;;;4.67;100.00;102343.81;5221666;28;20025;-80
2022/02/26 07:29:20;;;;;;;18.30;3.00;;;;;;;4.75;100.00;102363.81;5222239;28;20094;-81
2022/02/26 07:31:50;;;;;;;22.40;3.55;;;;;;;4.73;100.00;102365.53;5208982;28;20103;-81
2022/02/26 07:34:21;;;;;;;23.70;3.20;;;;;;;4.55;100.00;102369.50;5147838;28;20637;-81
2022/02/26 07:36:51;;;;;;;25.15;3.83;;;;;;;4.58;100.00;102379.91;5164013;28;20655;-81
2022/02/26 07:39:21;;;;;;;19.33;3.42;;;;;;;4.54;100.00;102381.59;5170084;28;20033;-80
2022/02/26 07:41:52;;;;;;;16.33;2.65;;;;;;;4.53;100.00;102392.78;5187288;28;20048;-81
2022/02/26 07:44:22;;;;;;;27.88;3.42;;;;;;;4.71;100.00;102387.03;5204453;28;20418;-80
2022/02/26 07:46:52;;;;;;;23.13;3.35;;;;;;;4.77;100.00;102388.03;5206123;28;20174;-81
2022/02/26 07:49:23;;;;;;;21.85;3.08;;;;;;;4.72;100.00;102389.69;5209876;28;20039;-81
2022/02/26 07:51:53;;;;;;;17.48;3.05;;;;;;;4.74;100.00;102387.97;5216343;28;20032;-81
2022/02/26 07:54:23;;;;;;;23.05;3.65;;;;;;;4.80;100.00;102393.25;5193566;28;20607;-81
2022/02/26 07:56:53;;;;;;;16.98;2.95;;;;;;;4.93;100.00;102391.72;5181581;28;20029;-81
2022/02/26 07:59:24;;;;;;;32.00;3.65;;;;;;;4.98;100.00;102398.72;5184195;28;20040;-81
2022/02/26 08:01:56;;;;;;;21.00;3.05;;;;;;;4.99;100.00;102399.63;5194583;28;20730;-80
2022/02/26 08:04:27;;;;;;;20.63;2.80;;;;;;;5.19;100.00;102401.66;5216191;28;20512;-81
2022/02/26 08:06:57;;;;;;;24.98;3.35;;;;;;;5.27;100.00;102412.13;5222848;28;20497;-81
2022/02/26 08:09:28;;;;;;;32.35;3.88;;;;;;;5.23;100.00;102405.16;5224299;28;20219;-80
2022/02/26 08:11:58;;;;;;;14.07;2.63;;;;;;;5.35;100.00;102407.97;5224459;28;20074;-80
2022/02/26 08:14:28;;;;;;;18.25;3.05;;;;;;;5.57;100.00;102405.69;5223375;28;20188;-81
2022/02/26 08:16:59;;;;;;;21.73;3.25;;;;;;;5.62;100.00;102417.00;5224141;28;20032;-80
2022/02/26 08:19:29;;;;;;;19.23;3.60;;;;;;;5.54;100.00;102416.88;5223940;28;20475;-81
2022/02/26 08:22:00;;;;;;;19.15;3.47;;;;;;;5.67;100.00;102410.13;5205444;28;20112;-81
2022/02/26 08:24:31;;;;;;;23.23;2.90;;;;;;;5.40;100.00;102427.91;5224190;28;20029;-81
2022/02/26 08:27:02;;;;;;;27.63;3.40;;;;;;;5.53;100.00;102422.03;5224751;28;20605;-80
2022/02/26 08:29:32;;;;;;;23.83;3.67;;;;;;;5.46;100.00;102434.06;5224136;28;20032;-79
2022/02/26 08:32:03;;;;;;;18.00;2.63;;;;;;;5.52;100.00;102435.84;5224139;28;20040;-79
2022/02/26 08:34:33;;;;;;;18.75;2.92;;;;;;;5.79;100.00;102434.59;5225581;28;20033;-80
2022/02/26 08:37:03;;;;;;;22.60;3.20;;;;;;;6.10;100.00;102438.44;5224125;28;20059;-80
2022/02/26 08:39:34;;;;;;;17.95;2.58;;;;;;;6.08;100.00;102438.41;5224429;28;20021;-80
2022/02/26 08:42:05;;;;;;;21.08;2.85;;;;;;;6.56;99.73;102451.94;5223526;28;20025;-80
2022/02/26 08:44:36;;;;;;;22.40;3.08;;;;;;;6.56;98.03;102444.16;5223894;28;20078;-81
2022/02/26 08:47:07;;;;;;;21.58;3.20;;;;;;;6.55;95.13;102454.53;5222652;28;20028;-80
2022/02/26 08:49:37;;;;;;;17.70;3.63;;;;;;;6.36;96.86;102463.84;5223991;28;20036;-80
2022/02/26 08:52:08;;;;;;;18.90;2.70;;;;;;;6.20;97.25;102471.41;5224708;28;20020;-82
2022/02/26 08:54:38;;;;;;;16.80;2.72;;;;;;;6.26;98.69;102471.50;5226448;28;20058;-81
2022/02/26 08:57:09;;;;;;;20.45;2.85;;;;;;;6.04;99.14;102480.75;5224258;28;20135;-80
2022/02/26 08:59:39;;;;;;;16.60;2.90;;;;;;;6.23;99.12;102474.06;5224530;28;20025;-82
2022/02/26 09:02:10;;;;;;;17.15;3.60;;;;;;;6.54;98.66;102476.16;5225573;28;20510;-81
2022/02/26 09:04:41;;;;;;;18.65;2.75;;;;;;;6.37;96.03;102485.47;5226449;28;20024;-80
2022/02/26 09:07:11;;;;;;;15.40;2.20;;;;;;;6.72;96.22;102486.75;5225809;28;20128;-80
2022/02/26 09:09:41;;;;;;;18.52;3.40;;;;;;;7.41;93.90;102478.75;5224477;28;20046;-80
2022/02/26 09:12:12;;;;;;;20.48;3.15;;;;;;;7.80;90.52;102480.72;5223186;28;20079;-81
2022/02/26 09:14:42;;;;;;;20.25;3.03;;;;;;;7.50;91.38;102486.63;5224211;28;20430;-81
2022/02/26 09:17:12;;;;;;;16.85;2.72;;;;;;;6.61;92.09;102480.59;5223540;28;20582;-82
2022/02/26 09:19:43;;;;;;;21.30;3.13;;;;;;;6.56;93.93;102487.47;5224942;28;20028;-80
2022/02/26 09:22:13;;;;;;;19.48;3.17;;;;;;;6.78;94.64;102490.28;5206403;28;20064;-80
2022/02/26 09:24:43;;;;;;;20.23;3.03;;;;;;;6.96;93.31;102494.81;5224919;28;20060;-80
2022/02/26 09:27:14;;;;;;;19.58;3.33;;;;;;;6.73;93.59;102507.56;5223024;28;20041;-79
2022/02/26 09:29:51;;;;;;;20.27;2.67;;;;;;;7.52;90.47;102495.28;5225732;28;20028;-82
2022/02/26 09:32:27;;;;;;;20.42;3.20;;;;;;;7.74;90.35;102497.19;5214527;28;20037;-80
2022/02/26 09:34:57;;;;;;;15.07;2.60;;;;;;;7.25;90.97;102504.59;5222276;28;20468;-80
2022/02/26 09:37:28;;;;;;;24.63;2.90;;;;;;;7.22;91.37;102510.66;5225051;28;20375;-81
2022/02/26 09:39:59;;;;;;;17.60;2.90;;;;;;;7.08;90.50;102508.78;5224946;28;20052;-80
2022/02/26 09:42:30;;;;;;;19.27;3.05;;;;;;;7.28;89.48;102517.63;5224321;28;20039;-79
2022/02/26 09:45:00;;;;;;;19.67;2.60;;;;;;;7.39;90.39;102511.66;5224034;28;20017;-82
2022/02/26 09:47:30;;;;;;;21.80;3.20;;;;;;;8.10;88.10;102513.06;5251201;22;20410;-77
2022/02/26 09:50:01;;;;;;;21.85;3.50;;;;;;;8.54;88.96;102516.75;5228458;28;20382;-76
2022/02/26 09:52:37;;;;;;;17.05;3.25;;;;;;;8.79;86.81;102513.38;5228433;28;20043;-78
2022/02/26 09:55:09;;;;;;;16.05;3.03;;;;;;;8.54;86.55;102523.72;5228034;28;20021;-77
2022/02/26 09:57:39;;;;;;;24.13;4.25;;;;;;;8.22;88.17;102518.34;5227950;28;20036;-77
2022/02/26 10:00:10;;;;;;;16.95;4.80;;;;;;;8.31;88.81;102518.41;5227447;28;20486;-77
2022/02/26 10:02:41;;;;;;;24.13;4.93;;;;;;;8.40;88.48;102522.78;5226546;28;20035;-77
2022/02/26 10:05:11;;;;;;;26.75;5.03;;;;;;;8.29;86.78;102522.72;5226577;28;20012;-77
2022/02/26 10:07:41;;;;;;;58.58;5.97;;;;;;;8.70;88.06;102521.13;5225025;28;20056;-77
2022/02/26 10:10:19;;;;;;;20.10;5.22;;;;;;;8.63;86.45;102532.44;5225827;28;20371;-77
2022/02/26 10:12:52;;;;;;;15.38;3.35;;;;;;;8.16;87.64;102544.31;5224559;28;20056;-76
2022/02/26 10:15:29;;;;;;;15.65;3.75;;;;;;;7.85;86.99;102534.56;5225029;28;20397;-78
2022/02/26 10:18:01;;;;;;;16.02;3.67;;;;;;;7.64;86.62;102547.44;5222663;28;20180;-77
2022/02/26 10:20:33;;;;;;;12.50;2.55;;;;;;;7.30;89.58;102542.81;5225613;28;20029;-77
2022/02/26 10:23:03;;;;;;;19.52;3.00;;;;;;;7.74;89.30;102541.41;5226414;28;20025;-77
2022/02/26 10:25:34;;;;;;;22.42;3.50;;;;;;;8.17;88.87;102540.84;5227016;28;20488;-77
2022/02/26 10:28:04;;;;;;;20.67;3.08;;;;;;;8.36;86.76;102547.06;5226369;28;20028;-77
2022/02/26 10:30:38;;;;;;;22.52;3.00;;;;;;;8.34;86.39;102547.06;5226281;28;20041;-75
2022/02/26 10:33:20;;;;;;;18.67;3.38;;;;;;;7.78;85.71;102548.41;5226654;28;20039;-77
2022/02/26 10:35:54;;;;;;;23.10;3.72;;;;;;;7.73;86.83;102542.28;5226463;28;20029;-76
2022/02/26 10:38:27;;;;;;;22.88;3.55;;;;;;;7.41;88.21;102555.91;5225664;28;20321;-76
2022/02/26 10:41:06;;;;;;;18.40;3.80;;;;;;;7.39;89.25;102550.69;5225563;28;20537;-76
2022/02/26 10:43:39;;;;;;;21.52;4.20;;;;;;;7.53;88.91;102562.09;5224203;28;20055;-78
2022/02/26 10:46:17;;;;;;;22.27;5.53;;;;;;;7.54;89.15;102566.41;5222917;28;20530;-76
2022/02/26 10:48:56;;;;;;;16.15;2.70;;;;;;;7.98;89.64;102557.22;5223250;28;20128;-77
2022/02/26 10:51:38;;;;;;;18.25;2.95;;;;;;;8.07;88.58;102559.03;5225398;28;20029;-77
2022/02/26 10:54:20;;;;;;;15.77;2.25;;;;;;;8.56;87.23;102556.72;5223750;28;20041;-77
2022/02/26 10:56:52;;;;;;;16.60;3.20;;;;;;;8.85;85.15;102555.09;5225010;28;20033;-77
2022/02/26 10:59:43;;;;;;;18.77;2.85;;;;;;;8.76;85.35;102560.25;5224231;28;20119;-77
2022/02/26 11:02:18;;;;;;;14.75;2.60;;;;;;;8.89;84.12;102559.44;5224227;28;20055;-76
2022/02/26 11:04:50;;;;;;;17.70;2.38;;;;;;;8.82;86.07;102559.41;5224429;28;20029;-77
2022/02/26 11:07:21;;;;;;;16.10;2.25;;;;;;;8.97;84.35;102549.91;5222688;28;20033;-77
2022/02/26 11:09:52;;;;;;;15.60;3.00;;;;;;;9.07;81.93;102551.66;5223681;28;20565;-77
2022/02/26 11:12:27;;;;;;;18.75;3.10;;;;;;;8.95;82.69;102558.59;5221976;28;20048;-77
2022/02/26 11:15:00;;;;;;;10.95;2.83;;;;;;;8.97;83.08;102552.53;5220072;28;20044;-77
2022/02/26 11:17:33;;;;;;;15.70;3.47;;;;;;;8.54;83.34;102548.00;5223736;28;20071;-77
2022/02/26 11:20:04;;;;;;;14.45;3.63;;;;;;;8.45;84.10;102550.59;5224354;28;20099;-77
2022/02/26 11:22:34;;;;;;;15.88;3.00;;;;;;;8.53;83.51;102550.63;5223096;28;20098;-77
2022/02/26 11:25:05;;;;;;;20.30;3.22;;;;;;;8.69;84.70;102545.47;5224722;28;20045;-77
2022/02/26 11:27:36;;;;;;;14.18;2.55;;;;;;;8.28;83.52;102547.03;5224039;28;20509;-77
2022/02/26 11:30:08;;;;;;;18.85;3.58;;;;;;;8.48;84.63;102537.56;5222502;28;20045;-77
2022/02/26 11:32:42;;;;;;;12.85;2.53;;;;;;;8.38;84.45;102546.19;5223754;28;20263;-77
2022/02/26 11:35:15;;;;;;;23.60;5.40;;;;;;;8.07;84.85;102544.25;5222966;28;20041;-77